createdAt,value
2023-01-09T07:05:06.885Z,9.247162
2023-01-09T07:06:06.702Z,9.247157
2023-01-09T07:07:06.528Z,9.247148
2023-01-09T07:08:06.517Z,9.247180
2023-01-09T07:09:06.490Z,9.247172
2023-01-09T07:10:06.476Z,9.247161
2023-01-09T07:11:06.478Z,9.247139
2023-01-09T07:12:06.497Z,9.247125
2023-01-09T07:13:06.514Z,9.247089
2023-01-09T07:14:06.465Z,9.247047
2023-01-09T07:15:06.467Z,9.247123
2023-01-09T07:16:06.452Z,9.247166
2023-01-09T07:17:06.459Z,9.247122
2023-01-09T07:18:06.431Z,9.247154
2023-01-09T07:19:06.425Z,9.247115
2023-01-09T07:20:06.415Z,9.247161
2023-01-09T07:21:06.400Z,9.247132
2023-01-09T07:22:06.457Z,9.247092
2023-01-09T07:23:06.383Z,9.247109
2023-01-09T07:24:06.381Z,9.247161
2023-01-09T07:25:06.412Z,9.247155
2023-01-09T07:26:06.390Z,9.247141
2023-01-09T07:27:06.397Z,9.247150
2023-01-09T07:28:06.378Z,9.247095
2023-01-09T07:29:06.355Z,9.247070
2023-01-09T07:30:06.379Z,9.247165
2023-01-09T07:31:06.364Z,9.247211
2023-01-09T07:32:06.400Z,9.247138
2023-01-09T07:33:06.310Z,9.247127
2023-01-09T07:34:06.337Z,9.247175
2023-01-09T07:35:06.298Z,9.247098
2023-01-09T07:36:06.293Z,9.247107
2023-01-09T07:37:06.326Z,9.247078
2023-01-09T07:38:06.278Z,9.247104
2023-01-09T07:39:06.306Z,9.247180
2023-01-09T07:40:06.274Z,9.247184
2023-01-09T07:41:06.261Z,9.247157
2023-01-09T07:42:06.292Z,9.247125
2023-01-09T07:43:06.252Z,9.247187
2023-01-09T07:44:06.250Z,9.247151
2023-01-09T07:45:06.246Z,9.247172
2023-01-09T07:46:06.349Z,9.247220
2023-01-09T07:47:06.238Z,9.247173
2023-01-09T07:48:06.218Z,9.247152
2023-01-09T07:49:06.224Z,9.247128
2023-01-09T07:50:06.206Z,9.247117
2023-01-09T07:51:06.215Z,9.247093
2023-01-09T07:52:06.234Z,9.247046
2023-01-09T07:53:06.187Z,9.247070
2023-01-09T07:54:06.178Z,9.247215
2023-01-09T07:55:06.236Z,9.247133
2023-01-09T07:56:06.150Z,9.247094
2023-01-09T07:57:06.189Z,9.247008
2023-01-09T07:58:06.175Z,9.247081
2023-01-09T07:59:06.179Z,9.247071
2023-01-09T08:00:06.161Z,9.247088
2023-01-09T08:01:06.186Z,9.247092
2023-01-09T08:02:06.232Z,9.247108
2023-01-09T08:03:06.166Z,9.247090
2023-01-09T08:04:06.130Z,9.247078
2023-01-09T08:05:06.095Z,9.247092
2023-01-09T08:06:06.109Z,9.247082
2023-01-09T08:07:06.115Z,9.247152
2023-01-09T08:08:06.065Z,9.247102
2023-01-09T08:09:06.073Z,9.247045
2023-01-09T08:10:06.064Z,9.247007
2023-01-09T08:11:06.080Z,9.247014
2023-01-09T08:12:06.130Z,9.247098
2023-01-09T08:13:06.060Z,9.247067
2023-01-09T08:14:06.030Z,9.247113
2023-01-09T08:15:06.019Z,9.247121
2023-01-09T08:16:06.072Z,9.247042
2023-01-09T08:17:06.036Z,9.247046
2023-01-09T08:18:06.001Z,9.247043
2023-01-09T08:19:06.011Z,9.247039
2023-01-09T08:20:06.141Z,9.247089
2023-01-09T08:21:06.001Z,9.247060
2023-01-09T08:22:06.013Z,9.247138
2023-01-09T08:23:06.003Z,9.247132
2023-01-09T08:24:05.992Z,9.247113
2023-01-09T08:25:05.962Z,9.247049
2023-01-09T08:26:05.982Z,9.247053
2023-01-09T08:27:05.974Z,9.247029
2023-01-09T08:28:05.945Z,9.247075
2023-01-09T08:29:05.952Z,9.246985
2023-01-09T08:30:05.947Z,9.247045
2023-01-09T08:31:06.012Z,9.247031
2023-01-09T08:32:05.945Z,9.247014
2023-01-09T08:33:05.939Z,9.247089
2023-01-09T08:34:05.909Z,9.247072
2023-01-09T08:35:06.018Z,9.247072
2023-01-09T08:36:05.951Z,9.247115
2023-01-09T08:37:05.901Z,9.247100
2023-01-09T08:38:05.902Z,9.247072
2023-01-09T08:39:05.871Z,9.247092
2023-01-09T08:40:05.868Z,9.247123
2023-01-09T08:41:05.853Z,9.247105
2023-01-09T08:42:05.862Z,9.247094
2023-01-09T08:43:05.861Z,9.247083
2023-01-09T08:44:05.853Z,9.247085
2023-01-09T08:45:05.841Z,9.247077
2023-01-09T08:46:05.961Z,9.247079
2023-01-09T08:47:05.846Z,9.247134
2023-01-09T08:48:05.867Z,9.247052
2023-01-09T08:49:05.826Z,9.247044
2023-01-09T08:50:05.812Z,9.247037
2023-01-09T08:51:05.792Z,9.246999
2023-01-09T08:52:05.837Z,9.247005
2023-01-09T08:53:05.782Z,9.247019
2023-01-09T08:54:05.796Z,9.247092
2023-01-09T08:55:05.765Z,9.247070
2023-01-09T08:56:05.798Z,9.247038
2023-01-09T08:57:05.778Z,9.247059
2023-01-09T08:58:05.774Z,9.247018
2023-01-09T08:59:05.774Z,9.247027
2023-01-09T09:00:05.732Z,9.247126
2023-01-09T09:01:05.740Z,9.247069
2023-01-09T09:02:05.720Z,9.247048
2023-01-09T09:03:05.778Z,9.247040
2023-01-09T09:04:05.729Z,9.247067
2023-01-09T09:05:05.719Z,9.247157
2023-01-09T09:06:06.363Z,9.247048
2023-01-09T09:07:05.718Z,9.247052
2023-01-09T09:08:05.677Z,9.247025
2023-01-09T09:09:05.680Z,9.247131
2023-01-09T09:10:05.693Z,9.247153
2023-01-09T09:11:05.661Z,9.247128
2023-01-09T09:12:05.698Z,9.247112
2023-01-09T09:13:05.644Z,9.246992
2023-01-09T09:14:05.664Z,9.247075
2023-01-09T09:15:05.678Z,9.247052
2023-01-09T09:16:05.691Z,9.247072
2023-01-09T09:17:05.693Z,9.247087
2023-01-09T09:18:05.613Z,9.247137
2023-01-09T09:19:05.630Z,9.247138
2023-01-09T09:20:05.591Z,9.247079
2023-01-09T09:21:05.581Z,9.247076
2023-01-09T09:22:05.627Z,9.247084
2023-01-09T09:23:05.631Z,9.247130
2023-01-09T09:24:05.570Z,9.247078
2023-01-09T09:25:05.582Z,9.247080
2023-01-09T09:26:05.589Z,9.247083
2023-01-09T09:27:05.617Z,9.247102
2023-01-09T09:28:05.548Z,9.247119
2023-01-09T09:29:05.534Z,9.247127
2023-01-09T09:30:05.528Z,9.247130
2023-01-09T09:31:05.541Z,9.247120
2023-01-09T09:32:05.514Z,9.247095
2023-01-09T09:33:05.550Z,9.247123
2023-01-09T09:34:05.510Z,9.247094
2023-01-09T09:35:05.574Z,9.247097
2023-01-09T09:36:05.530Z,9.247072
2023-01-09T09:37:05.555Z,9.247115
2023-01-09T09:38:05.830Z,9.247122
2023-01-09T09:39:05.474Z,9.247101
2023-01-09T09:40:17.557Z,9.247027
2023-01-09T09:41:07.474Z,9.247073
2023-01-09T09:42:05.476Z,9.247087
2023-01-09T09:43:05.502Z,9.247118
2023-01-09T09:44:05.455Z,9.247046
2023-01-09T09:45:05.488Z,9.247047
2023-01-09T09:46:05.493Z,9.247054
2023-01-09T09:47:05.464Z,9.247077
2023-01-09T09:48:05.502Z,9.247064
2023-01-09T09:49:07.051Z,9.247097
2023-01-09T09:50:06.408Z,9.247109
2023-01-09T09:51:05.412Z,9.247107
2023-01-09T09:52:05.374Z,9.247089
2023-01-09T09:53:05.384Z,9.247097
2023-01-09T09:54:05.389Z,9.247100
2023-01-09T09:55:05.370Z,9.247090
2023-01-09T09:56:05.356Z,9.247076
2023-01-09T09:57:05.413Z,9.247049
2023-01-09T09:58:05.353Z,9.247056
2023-01-09T09:59:05.342Z,9.247072
2023-01-09T10:00:05.331Z,9.247091
2023-01-09T10:01:05.324Z,9.247109
2023-01-09T10:02:05.344Z,9.247089
2023-01-09T10:03:05.372Z,9.247095
2023-01-09T10:04:05.308Z,9.247063
2023-01-09T10:05:05.336Z,9.247024
2023-01-09T10:06:05.326Z,9.247057
2023-01-09T10:07:05.318Z,9.247043
2023-01-09T10:08:15.491Z,9.247067
2023-01-09T10:09:07.272Z,9.247046
2023-01-09T10:10:05.276Z,9.247050
2023-01-09T10:11:05.263Z,9.247069
2023-01-09T10:12:05.261Z,9.247080
2023-01-09T10:13:05.253Z,9.247054
2023-01-09T10:14:06.396Z,9.247019
2023-01-09T10:15:06.247Z,9.247070
2023-01-09T10:16:05.343Z,9.247070
2023-01-09T10:17:05.216Z,9.247038
2023-01-09T10:18:05.237Z,9.246971
2023-01-09T10:19:05.199Z,9.246879
2023-01-09T10:20:05.230Z,9.246964
2023-01-09T10:21:05.221Z,9.246936
2023-01-09T10:22:06.049Z,9.247013
2023-01-09T10:23:05.201Z,9.247037
2023-01-09T10:24:05.255Z,9.247189
2023-01-09T10:25:05.199Z,9.247122
2023-01-09T10:26:05.183Z,9.247127
2023-01-09T10:27:05.183Z,9.247054
2023-01-09T10:28:05.222Z,9.246943
2023-01-09T10:29:05.131Z,9.246993
2023-01-09T10:30:05.145Z,9.246902
2023-01-09T10:31:05.211Z,9.246964
2023-01-09T10:32:05.106Z,9.246966
2023-01-09T10:33:05.134Z,9.246968
2023-01-09T10:34:05.118Z,9.247014
2023-01-09T10:35:05.130Z,9.247075
2023-01-09T10:36:05.088Z,9.247049
2023-01-09T10:37:05.169Z,9.247060
2023-01-09T10:38:05.089Z,9.247014
2023-01-09T10:39:05.077Z,9.247025
2023-01-09T10:40:05.066Z,9.247062
2023-01-09T10:41:06.067Z,9.247101
2023-01-09T10:42:05.125Z,9.247054
2023-01-09T10:43:05.068Z,9.247059
2023-01-09T10:44:05.022Z,9.247087
2023-01-09T10:45:05.068Z,9.247120
2023-01-09T10:46:05.090Z,9.247115
2023-01-09T10:47:05.016Z,9.247059
2023-01-09T10:48:05.051Z,9.247073
2023-01-09T10:49:04.991Z,9.247141
2023-01-09T10:50:05.036Z,9.247124
2023-01-09T10:51:04.977Z,9.247090
2023-01-09T10:52:05.012Z,9.247078
2023-01-09T10:53:05.001Z,9.247097
2023-01-09T10:54:04.997Z,9.247069
2023-01-09T10:55:04.987Z,9.247054
2023-01-09T10:56:04.955Z,9.247102
2023-01-09T10:57:04.959Z,9.247123
2023-01-09T10:58:04.955Z,9.247074
2023-01-09T10:59:04.939Z,9.247146
2023-01-09T11:00:04.920Z,9.247168
2023-01-09T11:01:04.930Z,9.247102
2023-01-09T11:02:04.985Z,9.247054
2023-01-09T11:03:04.931Z,9.247089
2023-01-09T11:04:04.913Z,9.247030
2023-01-09T11:05:04.889Z,9.247057
2023-01-09T11:06:04.896Z,9.247061
2023-01-09T11:07:04.875Z,9.247094
2023-01-09T11:08:04.879Z,9.247157
2023-01-09T11:09:04.850Z,9.247045
2023-01-09T11:10:04.858Z,9.247068
2023-01-09T11:11:04.847Z,9.247019
2023-01-09T11:12:04.854Z,9.247058
2023-01-09T11:13:04.851Z,9.247028
2023-01-09T11:14:04.845Z,9.247012
2023-01-09T11:15:04.847Z,9.247068
2023-01-09T11:16:04.870Z,9.247114
2023-01-09T11:17:04.824Z,9.247095
2023-01-09T11:18:04.862Z,9.247106
2023-01-09T11:19:04.803Z,9.247091
2023-01-09T11:20:04.790Z,9.247092
2023-01-09T11:21:04.776Z,9.247124
2023-01-09T11:22:04.759Z,9.247087
2023-01-09T11:23:04.785Z,9.247080
2023-01-09T11:24:04.752Z,9.247102
2023-01-09T11:25:04.791Z,9.247099
2023-01-09T11:26:04.818Z,9.247081
2023-01-09T11:27:04.753Z,9.247085
2023-01-09T11:28:04.769Z,9.247021
2023-01-09T11:29:04.753Z,9.246976
2023-01-09T11:30:04.769Z,9.247019
2023-01-09T11:31:04.786Z,9.247054
2023-01-09T11:32:04.695Z,9.247127
2023-01-09T11:33:04.720Z,9.247100
2023-01-09T11:34:04.745Z,9.247067
2023-01-09T11:35:04.744Z,9.247073
2023-01-09T11:36:04.690Z,9.247082
2023-01-09T11:37:04.708Z,9.247188
2023-01-09T11:38:04.671Z,9.247091
2023-01-09T11:39:04.696Z,9.247143
2023-01-09T11:40:04.720Z,9.247083
2023-01-09T11:41:04.679Z,9.247085
2023-01-09T11:42:04.667Z,9.247076
2023-01-09T11:43:04.670Z,9.247076
2023-01-09T11:44:04.688Z,9.247087
2023-01-09T11:45:04.614Z,9.247105
2023-01-09T11:46:04.656Z,9.247093
2023-01-09T11:47:04.645Z,9.247088
2023-01-09T11:48:04.645Z,9.247070
2023-01-09T11:49:04.581Z,9.247084
2023-01-09T11:50:05.629Z,9.247112
2023-01-09T11:51:04.561Z,9.247051
2023-01-09T11:52:04.576Z,9.247031
2023-01-09T11:53:04.613Z,9.247050
2023-01-09T11:54:04.557Z,9.247057
2023-01-09T11:55:04.587Z,9.247087
2023-01-09T11:56:04.553Z,9.247069
2023-01-09T11:57:04.551Z,9.247069
2023-01-09T11:58:04.564Z,9.247054
2023-01-09T11:59:04.552Z,9.247076
2023-01-09T12:00:04.557Z,9.247076
2023-01-09T12:01:04.502Z,9.247096
2023-01-09T12:02:04.578Z,9.247045
2023-01-09T12:03:04.560Z,9.247027
2023-01-09T12:04:04.520Z,9.247133
2023-01-09T12:05:04.579Z,9.247099
2023-01-09T12:06:04.528Z,9.247042
2023-01-09T12:07:04.758Z,9.247047
2023-01-09T12:08:04.468Z,9.247082
2023-01-09T12:09:04.455Z,9.247037
2023-01-09T12:10:04.479Z,9.246958
2023-01-09T12:11:04.457Z,9.247034
2023-01-09T12:12:04.439Z,9.247065
2023-01-09T12:13:04.482Z,9.247070
2023-01-09T12:14:04.426Z,9.247087
2023-01-09T12:15:04.446Z,9.247083
2023-01-09T12:16:04.509Z,9.247142
2023-01-09T12:17:04.440Z,9.247096
2023-01-09T12:18:04.415Z,9.247046
2023-01-09T12:19:05.640Z,9.247078
2023-01-09T12:20:04.371Z,9.247077
2023-01-09T12:21:04.432Z,9.247082
2023-01-09T12:22:04.351Z,9.247123
2023-01-09T12:23:04.372Z,9.247076
2023-01-09T12:24:04.360Z,9.247073
2023-01-09T12:25:04.362Z,9.247041
2023-01-09T12:26:04.345Z,9.247080
2023-01-09T12:27:04.326Z,9.247109
2023-01-09T12:28:04.364Z,9.247081
2023-01-09T12:29:04.320Z,9.247034
2023-01-09T12:30:04.314Z,9.247017
2023-01-09T12:31:04.331Z,9.247064
2023-01-09T12:32:04.371Z,9.246995
2023-01-09T12:33:04.287Z,9.246986
2023-01-09T12:34:04.329Z,9.247061
2023-01-09T12:35:04.307Z,9.247048
2023-01-09T12:36:04.267Z,9.247098
2023-01-09T12:37:04.303Z,9.247061
2023-01-09T12:38:04.278Z,9.247018
2023-01-09T12:39:04.316Z,9.247093
2023-01-09T12:40:04.266Z,9.247062
2023-01-09T12:41:06.740Z,9.247071
2023-01-09T12:42:04.278Z,9.247060
2023-01-09T12:43:04.231Z,9.247054
2023-01-09T12:44:04.280Z,9.247068
2023-01-09T12:45:04.246Z,9.247066
2023-01-09T12:46:04.250Z,9.247062
2023-01-09T12:47:04.217Z,9.247055
2023-01-09T12:48:04.199Z,9.247038
2023-01-09T12:49:04.193Z,9.247048
2023-01-09T12:50:04.190Z,9.247061
2023-01-09T12:51:04.168Z,9.247060
2023-01-09T12:52:04.174Z,9.247066
2023-01-09T12:53:04.184Z,9.247076
2023-01-09T12:54:04.156Z,9.247085
2023-01-09T12:55:05.121Z,9.247073
2023-01-09T12:56:05.152Z,9.247066
2023-01-09T12:57:04.167Z,9.247046
2023-01-09T12:58:04.167Z,9.247013
2023-01-09T12:59:04.124Z,9.247079
2023-01-09T13:00:04.124Z,9.247081
2023-01-09T13:01:04.191Z,9.247055
2023-01-09T13:02:04.153Z,9.247010
2023-01-09T13:03:12.439Z,9.246998
2023-01-09T13:04:06.093Z,9.246990
2023-01-09T13:05:04.070Z,9.247006
2023-01-09T13:06:04.099Z,9.247107
